Startpagina
METAR-TAF:

METAR-TAF

Vliegvelden :

Tasjkent, Oezbekistan

breedte: 41-16N, lengte: 069-16E, hoogte: 489 m

Actueel weer

Dit bericht is 15 minuten geleden gemaakt, om 23:00 UTC
Wind 2 kt uit het zuidzuidwesten
Temperatuur 20°C
Vochtigheid 46%
Druk 1008 hPa
Zicht 10 km of meer
geen wolken onder 1500 m en geen cumulonimbus

METAR: UTTT 262300Z 20002KT CAVOK 20/08 Q1008 R08L/CLRD70 NOSIG

Tijdstip: 04:15 (23:15 UTC)

Verwachting

Dit bericht is 6 uur en het 15 minuten geleden gemaakt, om 17:00 UTC
Verwachting geldig van 26 om 18 UTC tot 27 om 18 UTC
Wind 8 kt uit het noordoosten
Zicht: 7000 m
Tijdelijke
van 27 om 06 UTC tot 27 om 12 UTC
Wind 10 kt uit het zuidwesten met uitschieters tot 20 kt
Tijdelijke
van 27 om 12 UTC tot 27 om 18 UTC
Wind 18 kt uit het westen met uitschieters tot 28 kt
Zicht: 4000 m
Verspreide wolken op 6000 ft, Cumulonimbus.
Gebroken wolken op 10000 ft

TAF: UTTT 261700Z 2618/2718 04008KT 7000 NSC TX36/2709Z TEMPO 2706/2712 22010G20KT TEMPO 2712/2718 28018G28KT 4000 -DS SCT060CB BKN100

Waarnemingen en weersverwachtingen van meer dan 4000 vliegvelden (METAR en TAF).

De beschikbare stations zijn de gele en rode punten op de kaart.

Ga met uw muis naar het station om de naam te zien.

Klik dan om waarnemingen en weersverwachtingen te zien.

kaart wijzigen: klik op de groene knoppen met een zwart kruis om in te zoomen, op de groene knop met een streepje om uit te zoomen of op de groene pijlen voor aangrenzende kaarten.


METAR-TAF: